Time;durP1;ratioP1;P1;durP2;ratioP2;P2;SDS_P1;SDS_P2;PMS_P1;PMS_P2;Temp;Humidity;BMP_temperature;BMP_pressure;BME280_temperature;BME280_humidity;BME280_pressure;Samples;Min_cycle;Max_cycle;Signal;HPM_P1;HPM_P2
2023/06/02 00:00:50;;;;;;;;;;;;;;;;;;5093988;28;911;-69
2023/06/02 00:03:18;;;;;;;;;;;;;;;;;;5095388;28;895;-68
2023/06/02 00:05:44;;;;;;;;;;;;;;;;;;5076078;28;1238;-69
2023/06/02 00:08:10;;;;;;;;;;;;;;;;;;5077895;28;821;-69
2023/06/02 00:10:35;;;;;;;;;;;;;;;;;;5096183;28;963;-69
2023/06/02 00:13:02;;;;;;;;;;;;;;;;;;5095550;28;1969;-70
2023/06/02 00:15:29;;;;;;;;;;;;;;;;;;5078814;28;861;-69
2023/06/02 00:17:54;;;;;;;;;;;;;;;;;;5078116;28;869;-70
2023/06/02 00:20:20;;;;;;;;;;;;;;;;;;5096413;28;994;-70
2023/06/02 00:22:46;;;;;;;;;;;;;;;;;;5096245;28;881;-70
2023/06/02 00:25:12;;;;;;;;;;;;;;;;;;5074621;28;1232;-69
2023/06/02 00:27:37;;;;;;;;;;;;;;;;;;5069807;28;1251;-69
2023/06/02 00:30:03;;;;;;;;;;;;;;;;;;5075766;28;1247;-70
2023/06/02 00:32:28;;;;;;;;;;;;;;;;;;5095554;28;1971;-70
2023/06/02 00:34:53;;;;;;;;;;;;;;;;;;5095356;28;925;-69
2023/06/02 00:37:19;;;;;;;;;;;;;;;;;;5077286;28;1548;-70
2023/06/02 00:39:44;;;;;;;;;;;;;;;;;;5092591;28;928;-69
2023/06/02 00:42:09;;;;;;;;;;;;;;;;;;5074498;28;1163;-70
2023/06/02 00:44:35;;;;;;;;;;;;;;;;;;5092729;28;802;-69
2023/06/02 00:47:00;;;;;;;;;;;;;;;;;;5074290;28;955;-63
2023/06/02 00:49:25;;;;;;;;;;;;;;;;;;5074132;28;936;-63
2023/06/02 00:51:51;;;;;;;;;;;;;;;;;;5091324;28;1085;-64
2023/06/02 00:54:17;;;;;;;;;;;;;;;;;;5091704;28;1956;-64
2023/06/02 00:56:43;;;;;;;;;;;;;;;;;;5073150;28;1184;-63
2023/06/02 00:59:08;;;;;;;;;;;;;;;;;;5073372;28;1655;-63
2023/06/02 01:01:34;;;;;;;;;;;;;;;;;;5091358;28;908;-63
2023/06/02 01:04:00;;;;;;;;;;;;;;;;;;5091312;28;913;-63
2023/06/02 01:06:31;;;;;;;;;;;;;;;;;;5056649;28;1369;-62
2023/06/02 01:08:57;;;;;;;;;;;;;;;;;;5091232;28;848;-63
2023/06/02 01:11:23;;;;;;;;;;;;;;;;;;5073566;28;1188;-63
2023/06/02 01:13:51;;;;;;;;;;;;;;;;;;5073199;28;1894;-62
2023/06/02 01:16:17;;;;;;;;;;;;;;;;;;5073804;28;821;-63
2023/06/02 01:18:45;;;;;;;;;;;;;;;;;;5073681;28;952;-63
2023/06/02 01:21:12;;;;;;;;;;;;;;;;;;5091836;28;1002;-63
2023/06/02 01:23:45;;;;;;;;;;;;;;;;;;5091775;28;1049;-63
2023/06/02 01:26:10;;;;;;;;;;;;;;;;;;5073556;28;1308;-63
2023/06/02 01:28:35;;;;;;;;;;;;;;;;;;5073575;28;1199;-63
2023/06/02 01:31:07;;;;;;;;;;;;;;;;;;5056525;28;1243;-63
2023/06/02 01:33:38;;;;;;;;;;;;;;;;;;5073684;28;1943;-63
2023/06/02 01:36:04;;;;;;;;;;;;;;;;;;5091281;28;865;-63
2023/06/02 01:38:31;;;;;;;;;;;;;;;;;;5056998;28;710;-63
2023/06/02 01:40:58;;;;;;;;;;;;;;;;;;5072765;28;1330;-63
2023/06/02 01:43:24;;;;;;;;;;;;;;;;;;5091808;28;809;-63
2023/06/02 01:45:50;;;;;;;;;;;;;;;;;;5091709;28;866;-63
2023/06/02 01:48:17;;;;;;;;;;;;;;;;;;5073808;28;1296;-64
2023/06/02 01:50:43;;;;;;;;;;;;;;;;;;5091938;28;816;-63
2023/06/02 01:53:09;;;;;;;;;;;;;;;;;;5073655;28;1957;-63
2023/06/02 01:55:34;;;;;;;;;;;;;;;;;;5073408;28;803;-63
2023/06/02 01:58:00;;;;;;;;;;;;;;;;;;5056200;28;1343;-63
2023/06/02 02:00:26;;;;;;;;;;;;;;;;;;5091187;28;908;-63
2023/06/02 02:02:52;;;;;;;;;;;;;;;;;;5073265;28;887;-70
2023/06/02 02:05:18;;;;;;;;;;;;;;;;;;5092246;28;865;-70
2023/06/02 02:07:44;;;;;;;;;;;;;;;;;;5076414;28;1287;-69
2023/06/02 02:10:12;;;;;;;;;;;;;;;;;;5095746;28;939;-70
2023/06/02 02:12:38;;;;;;;;;;;;;;;;;;5095433;28;1956;-70
2023/06/02 02:15:04;;;;;;;;;;;;;;;;;;5094799;28;935;-70
2023/06/02 02:17:30;;;;;;;;;;;;;;;;;;5077083;28;872;-70
2023/06/02 02:19:56;;;;;;;;;;;;;;;;;;5076929;28;837;-69
2023/06/02 02:22:25;;;;;;;;;;;;;;;;;;5076838;28;922;-70
2023/06/02 02:24:50;;;;;;;;;;;;;;;;;;5076657;28;1508;-70
2023/06/02 02:27:16;;;;;;;;;;;;;;;;;;5077339;28;1362;-69
2023/06/02 02:29:41;;;;;;;;;;;;;;;;;;5094924;28;883;-70
2023/06/02 02:32:07;;;;;;;;;;;;;;;;;;5076173;28;1216;-69
2023/06/02 02:34:32;;;;;;;;;;;;;;;;;;5060455;28;1922;-70
2023/06/02 02:37:01;;;;;;;;;;;;;;;;;;5094830;28;849;-70
2023/06/02 02:39:30;;;;;;;;;;;;;;;;;;5077191;28;1469;-69
2023/06/02 02:41:55;;;;;;;;;;;;;;;;;;5076397;28;884;-70
2023/06/02 02:44:21;;;;;;;;;;;;;;;;;;5076890;28;1167;-70
2023/06/02 02:46:46;;;;;;;;;;;;;;;;;;5094830;28;891;-69
2023/06/02 02:49:11;;;;;;;;;;;;;;;;;;5076630;28;821;-69
2023/06/02 02:51:37;;;;;;;;;;;;;;;;;;5076606;28;821;-70
2023/06/02 02:54:03;;;;;;;;;;;;;;;;;;5075724;28;1894;-70
2023/06/02 02:56:28;;;;;;;;;;;;;;;;;;5094881;28;841;-70
2023/06/02 02:58:56;;;;;;;;;;;;;;;;;;5075730;28;1315;-70
2023/06/02 03:01:22;;;;;;;;;;;;;;;;;;5060104;28;1252;-70
2023/06/02 03:03:47;;;;;;;;;;;;;;;;;;5059452;28;1113;-70
2023/06/02 03:06:18;;;;;;;;;;;;;;;;;;5094142;28;844;-69
2023/06/02 03:08:43;;;;;;;;;;;;;;;;;;5076006;28;1538;-70
2023/06/02 03:11:09;;;;;;;;;;;;;;;;;;5075934;28;1347;-70
2023/06/02 03:13:34;;;;;;;;;;;;;;;;;;5094124;28;1914;-70
2023/06/02 03:16:00;;;;;;;;;;;;;;;;;;5058782;28;1488;-70
2023/06/02 03:18:25;;;;;;;;;;;;;;;;;;5074897;28;1219;-70
2023/06/02 03:20:51;;;;;;;;;;;;;;;;;;5094239;28;829;-69
2023/06/02 03:23:17;;;;;;;;;;;;;;;;;;5075292;28;952;-70
2023/06/02 03:25:43;;;;;;;;;;;;;;;;;;5076042;28;1214;-70
2023/06/02 03:28:08;;;;;;;;;;;;;;;;;;5076162;28;845;-69
2023/06/02 03:30:33;;;;;;;;;;;;;;;;;;5076347;28;865;-70
2023/06/02 03:32:59;;;;;;;;;;;;;;;;;;5075914;28;1898;-69
2023/06/02 03:35:25;;;;;;;;;;;;;;;;;;5060063;28;1434;-70
2023/06/02 03:37:50;;;;;;;;;;;;;;;;;;5094140;28;923;-69
2023/06/02 03:40:15;;;;;;;;;;;;;;;;;;5075865;28;836;-69
2023/06/02 03:42:41;;;;;;;;;;;;;;;;;;5094041;28;982;-69
2023/06/02 03:45:06;;;;;;;;;;;;;;;;;;5093360;28;757;-70
2023/06/02 03:47:31;;;;;;;;;;;;;;;;;;5059411;28;1355;-69
2023/06/02 03:49:57;;;;;;;;;;;;;;;;;;5075161;28;876;-69
2023/06/02 03:52:24;;;;;;;;;;;;;;;;;;5058719;28;1093;-69
2023/06/02 03:54:49;;;;;;;;;;;;;;;;;;5075574;28;1901;-70
2023/06/02 03:57:15;;;;;;;;;;;;;;;;;;5058080;28;1196;-70
2023/06/02 03:59:40;;;;;;;;;;;;;;;;;;5058373;28;1051;-69
2023/06/02 04:02:06;;;;;;;;;;;;;;;;;;5074933;28;892;-69
2023/06/02 04:04:31;;;;;;;;;;;;;;;;;;5092909;28;817;-70
2023/06/02 04:06:57;;;;;;;;;;;;;;;;;;5074630;28;1033;-70
2023/06/02 04:09:22;;;;;;;;;;;;;;;;;;5058328;28;1530;-69
2023/06/02 04:11:48;;;;;;;;;;;;;;;;;;5057873;28;1343;-69
2023/06/02 04:14:13;;;;;;;;;;;;;;;;;;5092873;28;1902;-70
2023/06/02 04:16:38;;;;;;;;;;;;;;;;;;5074882;28;1294;-70
2023/06/02 04:19:05;;;;;;;;;;;;;;;;;;5074427;28;864;-70
2023/06/02 04:21:30;;;;;;;;;;;;;;;;;;5092709;28;969;-70
2023/06/02 04:23:56;;;;;;;;;;;;;;;;;;5074210;28;1241;-70
2023/06/02 04:26:24;;;;;;;;;;;;;;;;;;5074719;28;1349;-70
2023/06/02 04:28:50;;;;;;;;;;;;;;;;;;5074875;28;1223;-70
2023/06/02 04:31:26;;;;;;;;;;;;;;;;;;5073961;28;1402;-70
2023/06/02 04:33:51;;;;;;;;;;;;;;;;;;5074456;28;1902;-70
2023/06/02 04:36:17;;;;;;;;;;;;;;;;;;5074726;28;692;-70
2023/06/02 04:38:43;;;;;;;;;;;;;;;;;;5058156;28;1331;-69
2023/06/02 04:41:08;;;;;;;;;;;;;;;;;;5057467;28;1334;-70
2023/06/02 04:43:34;;;;;;;;;;;;;;;;;;5058146;28;1447;-70
2023/06/02 04:46:01;;;;;;;;;;;;;;;;;;5074369;28;876;-70
2023/06/02 04:48:26;;;;;;;;;;;;;;;;;;5074759;28;829;-70
2023/06/02 04:50:52;;;;;;;;;;;;;;;;;;5092983;28;999;-70
2023/06/02 04:53:17;;;;;;;;;;;;;;;;;;5058008;28;1960;-70
2023/06/02 04:55:45;;;;;;;;;;;;;;;;;;5074807;28;872;-70
2023/06/02 04:58:10;;;;;;;;;;;;;;;;;;5065101;28;1158;-70
2023/06/02 05:00:36;;;;;;;;;;;;;;;;;;5034661;28;1240;-70
2023/06/02 05:03:01;;;;;;;;;;;;;;;;;;5051301;28;1311;-70
2023/06/02 05:05:27;;;;;;;;;;;;;;;;;;5052249;28;932;-70
2023/06/02 05:07:52;;;;;;;;;;;;;;;;;;5034420;28;1306;-70
2023/06/02 05:10:17;;;;;;;;;;;;;;;;;;5050893;28;801;-70
2023/06/02 05:12:43;;;;;;;;;;;;;;;;;;5050046;28;1982;-70
2023/06/02 05:15:08;;;;;;;;;;;;;;;;;;5050194;28;806;-70
2023/06/02 05:17:34;;;;;;;;;;;;;;;;;;5050355;28;1055;-70
2023/06/02 05:19:59;;;;;;;;;;;;;;;;;;5051537;28;968;-70
2023/06/02 05:22:27;;;;;;;;;;;;;;;;;;5051555;28;913;-70
2023/06/02 05:24:52;;;;;;;;;;;;;;;;;;5050006;28;849;-70
2023/06/02 05:27:17;;;;;;;;;;;;;;;;;;5051619;28;809;-70
2023/06/02 05:29:42;;;;;;;;;;;;;;;;;;5051990;28;932;-70
2023/06/02 05:32:08;;;;;;;;;;;;;;;;;;5033356;28;1220;-70
2023/06/02 05:34:33;;;;;;;;;;;;;;;;;;5052007;28;1969;-70
2023/06/02 05:37:00;;;;;;;;;;;;;;;;;;5051538;28;841;-70
2023/06/02 05:39:25;;;;;;;;;;;;;;;;;;5051654;28;868;-70
2023/06/02 05:41:50;;;;;;;;;;;;;;;;;;5052081;28;1302;-71
2023/06/02 05:44:16;;;;;;;;;;;;;;;;;;5037707;28;1288;-70
2023/06/02 05:46:41;;;;;;;;;;;;;;;;;;5054935;28;888;-70
2023/06/02 05:49:06;;;;;;;;;;;;;;;;;;5054451;28;853;-68
2023/06/02 05:51:32;;;;;;;;;;;;;;;;;;5054689;28;852;-69
2023/06/02 05:53:57;;;;;;;;;;;;;;;;;;5054119;28;1973;-68
2023/06/02 05:56:22;;;;;;;;;;;;;;;;;;5055203;28;848;-68
2023/06/02 05:58:48;;;;;;;;;;;;;;;;;;5037340;28;1300;-68
2023/06/02 06:01:13;;;;;;;;;;;;;;;;;;5037626;28;753;-67
2023/06/02 06:03:38;;;;;;;;;;;;;;;;;;5037451;28;1227;-68
2023/06/02 06:06:04;;;;;;;;;;;;;;;;;;5055298;28;837;-68
2023/06/02 06:08:29;;;;;;;;;;;;;;;;;;5053830;28;810;-68
2023/06/02 06:10:55;;;;;;;;;;;;;;;;;;5054342;28;1354;-69
2023/06/02 06:13:20;;;;;;;;;;;;;;;;;;5054121;28;1914;-68
2023/06/02 06:15:47;;;;;;;;;;;;;;;;;;5054196;28;1252;-69
2023/06/02 06:18:13;;;;;;;;;;;;;;;;;;5054680;28;892;-69
2023/06/02 06:20:40;;;;;;;;;;;;;;;;;;5056211;28;829;-69
2023/06/02 06:23:06;;;;;;;;;;;;;;;;;;5055729;28;950;-69
2023/06/02 06:25:31;;;;;;;;;;;;;;;;;;5055718;28;880;-70
2023/06/02 06:27:56;;;;;;;;;;;;;;;;;;5056534;28;912;-70
2023/06/02 06:30:21;;;;;;;;;;;;;;;;;;5055930;28;1216;-69
2023/06/02 06:32:47;;;;;;;;;;;;;;;;;;5038779;28;1907;-70
2023/06/02 06:35:12;;;;;;;;;;;;;;;;;;5056819;28;852;-69
2023/06/02 06:37:38;;;;;;;;;;;;;;;;;;5057002;28;806;-69
2023/06/02 06:40:04;;;;;;;;;;;;;;;;;;5038664;28;1223;-69
2023/06/02 06:42:29;;;;;;;;;;;;;;;;;;5054868;28;862;-69
2023/06/02 06:44:54;;;;;;;;;;;;;;;;;;5056446;28;890;-69
2023/06/02 06:47:19;;;;;;;;;;;;;;;;;;5055497;28;1011;-70
2023/06/02 06:49:45;;;;;;;;;;;;;;;;;;5055745;28;1310;-70
2023/06/02 06:52:10;;;;;;;;;;;;;;;;;;5054863;28;903;-70
2023/06/02 06:54:36;;;;;;;;;;;;;;;;;;5038044;28;1966;-70
2023/06/02 06:57:01;;;;;;;;;;;;;;;;;;5056046;28;881;-70
2023/06/02 06:59:26;;;;;;;;;;;;;;;;;;5053546;28;1435;-70
2023/06/02 07:01:52;;;;;;;;;;;;;;;;;;5054411;28;825;-70
2023/06/02 07:04:17;;;;;;;;;;;;;;;;;;5036724;28;1110;-70
2023/06/02 07:06:43;;;;;;;;;;;;;;;;;;5055948;28;869;-70
2023/06/02 07:09:08;;;;;;;;;;;;;;;;;;5053779;28;1224;-70
2023/06/02 07:11:34;;;;;;;;;;;;;;;;;;5052984;28;801;-70
2023/06/02 07:13:59;;;;;;;;;;;;;;;;;;5053909;28;1910;-70
2023/06/02 07:16:25;;;;;;;;;;;;;;;;;;5053590;28;1160;-70
2023/06/02 07:18:50;;;;;;;;;;;;;;;;;;5047851;28;1230;-70
2023/06/02 07:21:15;;;;;;;;;;;;;;;;;;5050053;28;1157;-70
2023/06/02 07:23:41;;;;;;;;;;;;;;;;;;5052246;28;926;-70
2023/06/02 07:26:06;;;;;;;;;;;;;;;;;;5034392;28;1316;-70
2023/06/02 07:28:31;;;;;;;;;;;;;;;;;;5034655;28;1201;-70
2023/06/02 07:30:57;;;;;;;;;;;;;;;;;;5053360;28;809;-70
2023/06/02 07:33:22;;;;;;;;;;;;;;;;;;5053664;28;1910;-70
2023/06/02 07:35:48;;;;;;;;;;;;;;;;;;5053469;28;970;-70
2023/06/02 07:38:13;;;;;;;;;;;;;;;;;;5033863;28;1046;-71
2023/06/02 07:40:38;;;;;;;;;;;;;;;;;;5034973;28;1184;-70
2023/06/02 07:43:03;;;;;;;;;;;;;;;;;;5052296;28;806;-70
2023/06/02 07:45:29;;;;;;;;;;;;;;;;;;5052042;28;897;-69
2023/06/02 07:47:54;;;;;;;;;;;;;;;;;;5053146;28;900;-70
2023/06/02 07:50:20;;;;;;;;;;;;;;;;;;5051941;28;1551;-69
2023/06/02 07:52:45;;;;;;;;;;;;;;;;;;5053875;28;1907;-69
2023/06/02 07:55:11;;;;;;;;;;;;;;;;;;5052559;28;833;-70
2023/06/02 07:57:36;;;;;;;;;;;;;;;;;;5055663;28;1350;-69
2023/06/02 08:00:15;;;;;;;;;;;;;;;;;;5075400;28;1170;-70
2023/06/02 08:02:46;;;;;;;;;;;;;;;;;;5091363;28;864;-69
2023/06/02 08:05:11;;;;;;;;;;;;;;;;;;5074479;28;1362;-70
2023/06/02 08:07:36;;;;;;;;;;;;;;;;;;5075265;28;1299;-69
2023/06/02 08:10:02;;;;;;;;;;;;;;;;;;5075134;28;825;-68
2023/06/02 08:12:28;;;;;;;;;;;;;;;;;;5093521;28;828;-68
2023/06/02 08:14:53;;;;;;;;;;;;;;;;;;5092640;28;1894;-69
2023/06/02 08:17:18;;;;;;;;;;;;;;;;;;5074927;28;1235;-69
2023/06/02 08:19:44;;;;;;;;;;;;;;;;;;5074215;28;1171;-69
2023/06/02 08:22:09;;;;;;;;;;;;;;;;;;5057085;28;687;-68
2023/06/02 08:24:36;;;;;;;;;;;;;;;;;;5074399;28;918;-69
2023/06/02 08:27:03;;;;;;;;;;;;;;;;;;5074957;28;832;-69
2023/06/02 08:29:30;;;;;;;;;;;;;;;;;;5074130;28;1347;-69
2023/06/02 08:31:55;;;;;;;;;;;;;;;;;;5074196;28;1286;-69
2023/06/02 08:34:21;;;;;;;;;;;;;;;;;;5073912;28;1902;-69
2023/06/02 08:36:56;;;;;;;;;;;;;;;;;;5074437;28;813;-68
2023/06/02 08:39:22;;;;;;;;;;;;;;;;;;5074849;28;861;-69
2023/06/02 08:41:48;;;;;;;;;;;;;;;;;;5074090;28;885;-68
2023/06/02 08:44:14;;;;;;;;;;;;;;;;;;5073954;28;1077;-69
2023/06/02 08:46:40;;;;;;;;;;;;;;;;;;5091882;28;848;-69
2023/06/02 08:49:06;;;;;;;;;;;;;;;;;;5073214;28;1096;-69
2023/06/02 08:51:35;;;;;;;;;;;;;;;;;;5091873;28;786;-69
2023/06/02 08:54:02;;;;;;;;;;;;;;;;;;5091916;28;1914;-69
2023/06/02 08:56:27;;;;;;;;;;;;;;;;;;5091722;28;829;-67
2023/06/02 08:58:52;;;;;;;;;;;;;;;;;;5059675;28;1188;-69
2023/06/02 09:01:17;;;;;;;;;;;;;;;;;;5051901;28;892;-69
2023/06/02 09:03:46;;;;;;;;;;;;;;;;;;5050228;28;884;-68
2023/06/02 09:06:22;;;;;;;;;;;;;;;;;;5050833;28;829;-69
2023/06/02 09:08:57;;;;;;;;;;;;;;;;;;5050288;28;856;-68
2023/06/02 09:11:23;;;;;;;;;;;;;;;;;;5067113;28;1487;-68
2023/06/02 09:13:49;;;;;;;;;;;;;;;;;;5049936;28;1909;-68
2023/06/02 09:16:14;;;;;;;;;;;;;;;;;;5050438;28;817;-68
2023/06/02 09:18:53;;;;;;;;;;;;;;;;;;5050403;28;1192;-68
2023/06/02 09:21:29;;;;;;;;;;;;;;;;;;5051874;28;842;-68
2023/06/02 09:23:55;;;;;;;;;;;;;;;;;;5052336;28;1043;-68
2023/06/02 09:26:22;;;;;;;;;;;;;;;;;;5050888;28;1227;-68
2023/06/02 09:29:13;;;;;;;;;;;;;;;;;;5050758;28;955;-68
2023/06/02 09:31:52;;;;;;;;;;;;;;;;;;5046989;28;1334;-68
2023/06/02 09:34:18;;;;;;;;;;;;;;;;;;5051718;28;1962;-70
2023/06/02 09:36:47;;;;;;;;;;;;;;;;;;5050613;28;802;-69
2023/06/02 09:39:12;;;;;;;;;;;;;;;;;;5050446;28;912;-70
2023/06/02 09:41:38;;;;;;;;;;;;;;;;;;5050555;28;912;-70
2023/06/02 09:44:13;;;;;;;;;;;;;;;;;;5051223;28;888;-69
2023/06/02 09:46:39;;;;;;;;;;;;;;;;;;5051290;28;893;-70
2023/06/02 09:49:05;;;;;;;;;;;;;;;;;;5050604;28;914;-70
2023/06/02 09:51:31;;;;;;;;;;;;;;;;;;5049221;28;757;-70
2023/06/02 09:53:56;;;;;;;;;;;;;;;;;;5032642;28;1902;-70
2023/06/02 09:56:22;;;;;;;;;;;;;;;;;;5051476;28;781;-69
2023/06/02 09:58:48;;;;;;;;;;;;;;;;;;5049140;28;1389;-70
2023/06/02 10:01:14;;;;;;;;;;;;;;;;;;5051309;28;786;-69
2023/06/02 10:03:44;;;;;;;;;;;;;;;;;;5049550;28;688;-69
2023/06/02 10:06:28;;;;;;;;;;;;;;;;;;5049515;28;889;-70
2023/06/02 10:09:20;;;;;;;;;;;;;;;;;;5050371;28;1038;-69
2023/06/02 10:12:00;;;;;;;;;;;;;;;;;;5047141;28;1251;-69
2023/06/02 10:14:40;;;;;;;;;;;;;;;;;;5050630;28;1918;-69
2023/06/02 10:17:09;;;;;;;;;;;;;;;;;;5049209;28;1105;-69
2023/06/02 10:19:52;;;;;;;;;;;;;;;;;;5049170;28;803;-68
2023/06/02 10:22:30;;;;;;;;;;;;;;;;;;5050553;28;909;-69
2023/06/02 10:25:05;;;;;;;;;;;;;;;;;;5048955;28;699;-69
2023/06/02 10:27:35;;;;;;;;;;;;;;;;;;5051289;28;888;-69
2023/06/02 10:30:00;;;;;;;;;;;;;;;;;;5069307;28;1554;-68
2023/06/02 10:32:27;;;;;;;;;;;;;;;;;;5053213;28;888;-68
2023/06/02 10:34:53;;;;;;;;;;;;;;;;;;5053902;28;1906;-69
2023/06/02 10:37:19;;;;;;;;;;;;;;;;;;5036012;28;1160;-69
2023/06/02 10:39:46;;;;;;;;;;;;;;;;;;5052776;28;1200;-69
2023/06/02 10:42:12;;;;;;;;;;;;;;;;;;5052520;28;1264;-69
2023/06/02 10:44:37;;;;;;;;;;;;;;;;;;5052488;28;1252;-68
2023/06/02 10:47:17;;;;;;;;;;;;;;;;;;5054030;28;853;-69
2023/06/02 10:49:59;;;;;;;;;;;;;;;;;;5052799;28;1299;-69
2023/06/02 10:52:29;;;;;;;;;;;;;;;;;;5053157;28;1326;-69
2023/06/02 10:55:07;;;;;;;;;;;;;;;;;;5052853;28;1967;-68
2023/06/02 10:57:47;;;;;;;;;;;;;;;;;;5054727;28;884;-68
2023/06/02 11:00:38;;;;;;;;;;;;;;;;;;5052734;28;1235;-69
2023/06/02 11:03:14;;;;;;;;;;;;;;;;;;5049183;28;1188;-69
2023/06/02 11:05:39;;;;;;;;;;;;;;;;;;5054196;28;888;-69
2023/06/02 11:08:08;;;;;;;;;;;;;;;;;;5035904;28;1355;-68
2023/06/02 11:10:43;;;;;;;;;;;;;;;;;;5052581;28;1368;-69
2023/06/02 11:13:09;;;;;;;;;;;;;;;;;;5053591;28;1918;-69
2023/06/02 11:15:34;;;;;;;;;;;;;;;;;;5053929;28;907;-68
2023/06/02 11:18:03;;;;;;;;;;;;;;;;;;5051837;28;810;-68
2023/06/02 11:20:34;;;;;;;;;;;;;;;;;;5053602;28;857;-69
2023/06/02 11:23:05;;;;;;;;;;;;;;;;;;5053274;28;972;-69
2023/06/02 11:25:31;;;;;;;;;;;;;;;;;;5035650;28;1224;-69
2023/06/02 11:27:56;;;;;;;;;;;;;;;;;;5053389;28;849;-69
2023/06/02 11:30:21;;;;;;;;;;;;;;;;;;5052323;28;687;-69
2023/06/02 11:32:51;;;;;;;;;;;;;;;;;;5035484;28;1968;-69
2023/06/02 11:35:18;;;;;;;;;;;;;;;;;;5053480;28;817;-69
2023/06/02 11:37:59;;;;;;;;;;;;;;;;;;5053087;28;1073;-69
2023/06/02 11:40:27;;;;;;;;;;;;;;;;;;5052118;28;916;-69
2023/06/02 11:42:52;;;;;;;;;;;;;;;;;;5052831;28;860;-69
2023/06/02 11:45:25;;;;;;;;;;;;;;;;;;5052954;28;833;-69
2023/06/02 11:47:57;;;;;;;;;;;;;;;;;;5052913;28;899;-69
2023/06/02 11:50:22;;;;;;;;;;;;;;;;;;5053200;28;857;-69
2023/06/02 11:52:48;;;;;;;;;;;;;;;;;;5052381;28;1957;-69
2023/06/02 11:55:13;;;;;;;;;;;;;;;;;;5034889;28;1738;-69
2023/06/02 11:57:40;;;;;;;;;;;;;;;;;;5053356;28;829;-71
2023/06/02 12:00:09;;;;;;;;;;;;;;;;;;5050923;28;1406;-71
2023/06/02 12:02:35;;;;;;;;;;;;;;;;;;5051460;28;1240;-71
2023/06/02 12:05:00;;;;;;;;;;;;;;;;;;5050878;28;825;-71
2023/06/02 12:07:29;;;;;;;;;;;;;;;;;;5052675;28;814;-71
2023/06/02 12:09:54;;;;;;;;;;;;;;;;;;5051112;28;943;-71
2023/06/02 12:12:20;;;;;;;;;;;;;;;;;;5050941;28;920;-71
2023/06/02 12:14:45;;;;;;;;;;;;;;;;;;5050885;28;1994;-71
2023/06/02 12:17:10;;;;;;;;;;;;;;;;;;5052615;28;1089;-71
2023/06/02 12:19:36;;;;;;;;;;;;;;;;;;5051378;28;1196;-65
2023/06/02 12:22:14;;;;;;;;;;;;;;;;;;5050165;28;1173;-66
2023/06/02 12:24:40;;;;;;;;;;;;;;;;;;5050899;28;1335;-66
2023/06/02 12:27:07;;;;;;;;;;;;;;;;;;5052064;28;805;-66
2023/06/02 12:29:33;;;;;;;;;;;;;;;;;;5034493;28;1106;-66
2023/06/02 12:32:00;;;;;;;;;;;;;;;;;;5051909;28;975;-66
2023/06/02 12:34:25;;;;;;;;;;;;;;;;;;5052732;28;1968;-66
2023/06/02 12:36:53;;;;;;;;;;;;;;;;;;5051161;28;897;-66
2023/06/02 12:39:19;;;;;;;;;;;;;;;;;;5052595;28;893;-66
2023/06/02 12:41:44;;;;;;;;;;;;;;;;;;5052591;28;890;-66
2023/06/02 12:44:09;;;;;;;;;;;;;;;;;;5051291;28;817;-66
2023/06/02 12:46:35;;;;;;;;;;;;;;;;;;5052144;28;849;-66
2023/06/02 12:49:00;;;;;;;;;;;;;;;;;;5049870;28;786;-66
2023/06/02 12:51:25;;;;;;;;;;;;;;;;;;5051237;28;909;-64
2023/06/02 12:53:51;;;;;;;;;;;;;;;;;;5051363;28;1963;-66
2023/06/02 12:56:16;;;;;;;;;;;;;;;;;;5051301;28;892;-65
2023/06/02 12:58:42;;;;;;;;;;;;;;;;;;5050362;28;1394;-65
2023/06/02 13:01:07;;;;;;;;;;;;;;;;;;5049559;28;1224;-65
2023/06/02 13:03:32;;;;;;;;;;;;;;;;;;5050520;28;848;-65
2023/06/02 13:05:59;;;;;;;;;;;;;;;;;;5051508;28;880;-65
2023/06/02 13:08:25;;;;;;;;;;;;;;;;;;5052024;28;840;-65
2023/06/02 13:10:50;;;;;;;;;;;;;;;;;;5050591;28;1287;-70
2023/06/02 13:13:16;;;;;;;;;;;;;;;;;;5052087;28;1954;-70
2023/06/02 13:15:41;;;;;;;;;;;;;;;;;;5052598;28;864;-70
2023/06/02 13:18:06;;;;;;;;;;;;;;;;;;5050801;28;1322;-70
2023/06/02 13:20:32;;;;;;;;;;;;;;;;;;5050652;28;893;-71
2023/06/02 13:22:57;;;;;;;;;;;;;;;;;;5051431;28;923;-69
2023/06/02 13:25:23;;;;;;;;;;;;;;;;;;5049929;28;1375;-69
2023/06/02 13:27:48;;;;;;;;;;;;;;;;;;5052198;28;837;-68
2023/06/02 13:30:15;;;;;;;;;;;;;;;;;;5051766;28;900;-68
2023/06/02 13:32:40;;;;;;;;;;;;;;;;;;5049921;28;1256;-68
2023/06/02 13:35:06;;;;;;;;;;;;;;;;;;5033518;28;1906;-69
2023/06/02 13:37:33;;;;;;;;;;;;;;;;;;5050390;28;1230;-69
2023/06/02 13:39:59;;;;;;;;;;;;;;;;;;5050227;28;1241;-69
2023/06/02 13:42:25;;;;;;;;;;;;;;;;;;5051471;28;904;-69
2023/06/02 13:44:50;;;;;;;;;;;;;;;;;;5033809;28;1331;-68
2023/06/02 13:47:15;;;;;;;;;;;;;;;;;;5050829;28;860;-68
2023/06/02 13:49:41;;;;;;;;;;;;;;;;;;5050788;28;794;-69
2023/06/02 13:52:06;;;;;;;;;;;;;;;;;;5051263;28;841;-69
2023/06/02 13:54:32;;;;;;;;;;;;;;;;;;5051328;28;1890;-68
2023/06/02 13:56:57;;;;;;;;;;;;;;;;;;5032822;28;683;-68
2023/06/02 13:59:23;;;;;;;;;;;;;;;;;;5033645;28;1252;-68
2023/06/02 14:01:49;;;;;;;;;;;;;;;;;;5033865;28;1216;-68
2023/06/02 14:04:14;;;;;;;;;;;;;;;;;;5037417;28;1110;-69
2023/06/02 14:06:39;;;;;;;;;;;;;;;;;;5038234;28;1203;-69
2023/06/02 14:09:06;;;;;;;;;;;;;;;;;;5068394;28;841;-69
2023/06/02 14:11:33;;;;;;;;;;;;;;;;;;5062190;28;1208;-68
2023/06/02 14:13:58;;;;;;;;;;;;;;;;;;5055144;28;1921;-68
2023/06/02 14:16:24;;;;;;;;;;;;;;;;;;5054138;28;1208;-69
2023/06/02 14:18:49;;;;;;;;;;;;;;;;;;5053696;28;1215;-68
2023/06/02 14:21:15;;;;;;;;;;;;;;;;;;5053998;28;830;-68
2023/06/02 14:23:40;;;;;;;;;;;;;;;;;;5037600;28;1322;-68
2023/06/02 14:26:05;;;;;;;;;;;;;;;;;;5053246;28;1203;-68
2023/06/02 14:28:31;;;;;;;;;;;;;;;;;;5037051;28;1246;-68
2023/06/02 14:30:56;;;;;;;;;;;;;;;;;;5053475;28;1211;-68
2023/06/02 14:33:21;;;;;;;;;;;;;;;;;;5054546;28;2281;-68
2023/06/02 14:35:46;;;;;;;;;;;;;;;;;;5053702;28;1280;-68
2023/06/02 14:38:12;;;;;;;;;;;;;;;;;;5036089;28;1258;-68
2023/06/02 14:40:38;;;;;;;;;;;;;;;;;;5036866;28;1232;-68
2023/06/02 14:43:04;;;;;;;;;;;;;;;;;;5036150;28;814;-67
2023/06/02 14:45:29;;;;;;;;;;;;;;;;;;5054337;28;801;-68
2023/06/02 14:47:56;;;;;;;;;;;;;;;;;;5054171;28;939;-68
2023/06/02 14:50:21;;;;;;;;;;;;;;;;;;5053036;28;899;-69
2023/06/02 14:52:46;;;;;;;;;;;;;;;;;;5053551;28;900;-69
2023/06/02 14:55:11;;;;;;;;;;;;;;;;;;5052613;28;1910;-69
2023/06/02 14:57:37;;;;;;;;;;;;;;;;;;5036240;28;1481;-69
2023/06/02 15:00:02;;;;;;;;;;;;;;;;;;5051896;28;1345;-69
2023/06/02 15:02:27;;;;;;;;;;;;;;;;;;5053105;28;868;-69
2023/06/02 15:04:54;;;;;;;;;;;;;;;;;;5035459;28;1343;-69
2023/06/02 15:07:21;;;;;;;;;;;;;;;;;;5052445;28;1283;-70
2023/06/02 15:09:47;;;;;;;;;;;;;;;;;;5036790;28;1431;-71
2023/06/02 15:12:12;;;;;;;;;;;;;;;;;;5035776;28;1636;-70
2023/06/02 15:14:37;;;;;;;;;;;;;;;;;;5052512;28;1985;-70
2023/06/02 15:17:03;;;;;;;;;;;;;;;;;;5052252;28;1175;-70
2023/06/02 15:19:28;;;;;;;;;;;;;;;;;;5054284;28;833;-71
2023/06/02 15:21:53;;;;;;;;;;;;;;;;;;5053208;28;950;-70
2023/06/02 15:24:19;;;;;;;;;;;;;;;;;;5035619;28;1346;-70
2023/06/02 15:26:44;;;;;;;;;;;;;;;;;;5052415;28;1162;-70
2023/06/02 15:29:10;;;;;;;;;;;;;;;;;;5053458;28;1056;-70
2023/06/02 15:31:35;;;;;;;;;;;;;;;;;;5053063;28;1453;-70
2023/06/02 15:34:00;;;;;;;;;;;;;;;;;;5034910;28;1918;-70
2023/06/02 15:36:29;;;;;;;;;;;;;;;;;;5021507;28;1487;-65
2023/06/02 15:38:55;;;;;;;;;;;;;;;;;;5041469;28;1146;-65
2023/06/02 15:41:20;;;;;;;;;;;;;;;;;;5049587;28;1212;-65
2023/06/02 15:43:45;;;;;;;;;;;;;;;;;;5048997;28;1374;-64
2023/06/02 15:46:11;;;;;;;;;;;;;;;;;;5031764;28;1231;-64
2023/06/02 15:48:36;;;;;;;;;;;;;;;;;;5038160;28;1327;-64
2023/06/02 15:51:01;;;;;;;;;;;;;;;;;;5033706;28;1213;-64
2023/06/02 15:53:27;;;;;;;;;;;;;;;;;;5048279;28;1987;-65
2023/06/02 15:55:52;;;;;;;;;;;;;;;;;;5031941;28;1221;-65
2023/06/02 15:58:17;;;;;;;;;;;;;;;;;;5020353;28;1247;-65
2023/06/02 16:00:43;;;;;;;;;;;;;;;;;;5077768;28;1208;-64
2023/06/02 16:03:08;;;;;;;;;;;;;;;;;;5070911;28;1441;-64
2023/06/02 16:05:35;;;;;;;;;;;;;;;;;;5057021;28;1157;-63
2023/06/02 16:08:01;;;;;;;;;;;;;;;;;;5056253;28;1232;-64
2023/06/02 16:10:26;;;;;;;;;;;;;;;;;;5074544;28;915;-63
2023/06/02 16:12:55;;;;;;;;;;;;;;;;;;5092374;28;808;-70
2023/06/02 16:15:21;;;;;;;;;;;;;;;;;;5073004;28;1973;-70
2023/06/02 16:17:46;;;;;;;;;;;;;;;;;;5057091;28;1304;-70
2023/06/02 16:20:11;;;;;;;;;;;;;;;;;;5087902;28;1156;-70
2023/06/02 16:22:36;;;;;;;;;;;;;;;;;;5086785;28;1290;-64
2023/06/02 16:25:03;;;;;;;;;;;;;;;;;;5073156;28;1240;-64
2023/06/02 16:27:29;;;;;;;;;;;;;;;;;;5073961;28;1350;-64
2023/06/02 16:29:54;;;;;;;;;;;;;;;;;;5073721;28;1315;-64
2023/06/02 16:32:20;;;;;;;;;;;;;;;;;;5071766;28;1261;-64
2023/06/02 16:34:45;;;;;;;;;;;;;;;;;;5071616;28;1897;-64
2023/06/02 16:37:11;;;;;;;;;;;;;;;;;;5071816;28;1239;-64
2023/06/02 16:39:37;;;;;;;;;;;;;;;;;;5092098;28;907;-64
2023/06/02 16:42:02;;;;;;;;;;;;;;;;;;5073345;28;1218;-64
2023/06/02 16:44:28;;;;;;;;;;;;;;;;;;5073817;28;884;-64
2023/06/02 16:46:54;;;;;;;;;;;;;;;;;;5091254;28;1099;-64
2023/06/02 16:49:19;;;;;;;;;;;;;;;;;;5063646;28;1200;-64
2023/06/02 16:51:45;;;;;;;;;;;;;;;;;;5069756;28;1214;-64
2023/06/02 16:54:11;;;;;;;;;;;;;;;;;;5051758;28;1894;-64
2023/06/02 16:56:37;;;;;;;;;;;;;;;;;;5036310;28;1363;-64
2023/06/02 16:59:02;;;;;;;;;;;;;;;;;;5071377;28;1232;-65
2023/06/02 17:01:29;;;;;;;;;;;;;;;;;;5054432;28;723;-70
2023/06/02 17:03:54;;;;;;;;;;;;;;;;;;5053214;28;1172;-70
2023/06/02 17:06:20;;;;;;;;;;;;;;;;;;5053371;28;1206;-70